sensor_id;sensor_type;location;lat;lon;timestamp;pressure;altitude;pressure_sealevel;temperature;humidity
57038;BME280;59942;49.304;8.256;2023-01-19T00:00:52;99279.53;;;-2.92;88.49
57038;BME280;59942;49.304;8.256;2023-01-19T00:03:19;99234.06;;;-3.24;88.84
57038;BME280;59942;49.304;8.256;2023-01-19T00:05:47;99366.38;;;-2.42;89.73
57038;BME280;59942;49.304;8.256;2023-01-19T00:08:15;99381.59;;;-2.40;90.16
57038;BME280;59942;49.304;8.256;2023-01-19T00:10:44;99378.25;;;-2.42;90.09
57038;BME280;59942;49.304;8.256;2023-01-19T00:13:13;99351.28;;;-2.65;90.67
57038;BME280;59942;49.304;8.256;2023-01-19T00:15:40;99316.69;;;-2.83;89.99
57038;BME280;59942;49.304;8.256;2023-01-19T00:18:07;99380.75;;;-2.38;90.61
57038;BME280;59942;49.304;8.256;2023-01-19T00:20:37;99375.72;;;-2.42;89.58
57038;BME280;59942;49.304;8.256;2023-01-19T00:23:05;99379.03;;;-2.37;90.85
57038;BME280;59942;49.304;8.256;2023-01-19T00:25:34;99319.97;;;-2.61;90.82
57038;BME280;59942;49.304;8.256;2023-01-19T00:28:01;99331.75;;;-2.49;90.50
57038;BME280;59942;49.304;8.256;2023-01-19T00:30:28;99367.22;;;-2.43;88.90
57038;BME280;59942;49.304;8.256;2023-01-19T00:32:55;99277.06;;;-3.01;89.52
57038;BME280;59942;49.304;8.256;2023-01-19T00:35:22;99300.59;;;-2.74;88.51
57038;BME280;59942;49.304;8.256;2023-01-19T00:37:49;99372.16;;;-2.21;89.29
57038;BME280;59942;49.304;8.256;2023-01-19T00:40:16;99389.09;;;-2.19;88.79
57038;BME280;59942;49.304;8.256;2023-01-19T00:42:44;99353.66;;;-2.37;88.25
57038;BME280;59942;49.304;8.256;2023-01-19T00:45:22;99318.25;;;-2.60;87.61
57038;BME280;59942;49.304;8.256;2023-01-19T00:47:50;99361.38;;;-2.50;86.59
57038;BME280;59942;49.304;8.256;2023-01-19T00:50:27;99393.34;;;-2.21;88.31
57038;BME280;59942;49.304;8.256;2023-01-19T00:52:56;99342.72;;;-2.49;88.97
57038;BME280;59942;49.304;8.256;2023-01-19T00:55:23;99401.78;;;-2.17;88.93
57038;BME280;59942;49.304;8.256;2023-01-19T00:57:50;99308.25;;;-2.84;88.56
57038;BME280;59942;49.304;8.256;2023-01-19T01:00:18;99395.91;;;-2.29;88.38
57038;BME280;59942;49.304;8.256;2023-01-19T01:02:46;99391.69;;;-2.25;89.49
57038;BME280;59942;49.304;8.256;2023-01-19T01:05:14;99406.94;;;-2.27;88.76
57038;BME280;59942;49.304;8.256;2023-01-19T01:07:41;99332.69;;;-2.70;88.14
57038;BME280;59942;49.304;8.256;2023-01-19T01:10:15;99394.25;;;-2.36;88.37
57038;BME280;59942;49.304;8.256;2023-01-19T01:12:42;99331.03;;;-2.71;89.62
57038;BME280;59942;49.304;8.256;2023-01-19T01:15:29;99374.81;;;-2.40;90.55
57038;BME280;59942;49.304;8.256;2023-01-19T01:17:56;99368.94;;;-2.43;89.42
57038;BME280;59942;49.304;8.256;2023-01-19T01:20:25;99354.63;;;-2.54;89.44
57038;BME280;59942;49.304;8.256;2023-01-19T01:22:54;99405.28;;;-2.34;88.93
57038;BME280;59942;49.304;8.256;2023-01-19T01:25:23;99413.63;;;-2.15;90.42
57038;BME280;59942;49.304;8.256;2023-01-19T01:27:51;99417.06;;;-2.23;89.42
57038;BME280;59942;49.304;8.256;2023-01-19T01:30:18;99404.41;;;-2.28;90.56
57038;BME280;59942;49.304;8.256;2023-01-19T01:32:45;99408.59;;;-2.21;90.87
57038;BME280;59942;49.304;8.256;2023-01-19T01:35:13;99382.44;;;-2.40;90.65
57038;BME280;59942;49.304;8.256;2023-01-19T01:37:40;99398.44;;;-2.27;91.21
57038;BME280;59942;49.304;8.256;2023-01-19T01:40:11;99315.00;;;-2.80;91.00
57038;BME280;59942;49.304;8.256;2023-01-19T01:42:38;99325.94;;;-2.76;91.15
57038;BME280;59942;49.304;8.256;2023-01-19T01:45:35;99298.09;;;-2.82;90.76
57038;BME280;59942;49.304;8.256;2023-01-19T01:48:08;99410.22;;;-2.12;90.60
57038;BME280;59942;49.304;8.256;2023-01-19T01:50:40;99414.47;;;-2.17;90.09
57038;BME280;59942;49.304;8.256;2023-01-19T01:53:31;99347.88;;;-2.59;90.17
57038;BME280;59942;49.304;8.256;2023-01-19T01:56:01;99348.69;;;-2.56;91.30
57038;BME280;59942;49.304;8.256;2023-01-19T01:58:31;99364.66;;;-2.35;90.58
57038;BME280;59942;49.304;8.256;2023-01-19T02:00:58;99351.16;;;-2.40;90.46
57038;BME280;59942;49.304;8.256;2023-01-19T02:03:44;99391.69;;;-2.25;89.21
57038;BME280;59942;49.304;8.256;2023-01-19T02:06:12;99405.94;;;-2.05;90.59
57038;BME280;59942;49.304;8.256;2023-01-19T02:11:27;99243.28;;;-3.11;89.38
57038;BME280;59942;49.304;8.256;2023-01-19T02:14:16;99239.00;;;-2.98;90.47
57038;BME280;59942;49.304;8.256;2023-01-19T02:16:47;99336.72;;;-2.34;91.43
57038;BME280;59942;49.304;8.256;2023-01-19T02:19:20;99426.19;;;-1.93;90.58
57038;BME280;59942;49.304;8.256;2023-01-19T02:22:48;99294.56;;;-2.58;90.71
57038;BME280;59942;49.304;8.256;2023-01-19T02:24:49;99320.78;;;-2.57;89.60
57038;BME280;59942;49.304;8.256;2023-01-19T02:27:18;99331.66;;;-2.34;90.46
57038;BME280;59942;49.304;8.256;2023-01-19T02:29:48;99302.25;;;-2.70;89.95
57038;BME280;59942;49.304;8.256;2023-01-19T02:32:15;99323.25;;;-2.43;90.16
57038;BME280;59942;49.304;8.256;2023-01-19T02:34:48;99386.56;;;-2.19;90.04
57038;BME280;59942;49.304;8.256;2023-01-19T02:37:18;99185.16;;;-3.50;89.81
57038;BME280;59942;49.304;8.256;2023-01-19T02:40:00;99335.13;;;-2.53;91.74
57038;BME280;59942;49.304;8.256;2023-01-19T02:42:36;99325.00;;;-2.53;91.17
57038;BME280;59942;49.304;8.256;2023-01-19T02:45:06;99220.44;;;-3.08;91.50
57038;BME280;59942;49.304;8.256;2023-01-19T02:47:40;99407.53;;;-1.90;92.27
57038;BME280;59942;49.304;8.256;2023-01-19T02:50:38;99414.28;;;-1.91;92.09
57038;BME280;59942;49.304;8.256;2023-01-19T02:56:06;99360.38;;;-2.30;91.43
57038;BME280;59942;49.304;8.256;2023-01-19T02:59:11;99403.31;;;-1.92;92.79
57038;BME280;59942;49.304;8.256;2023-01-19T03:01:51;99287.03;;;-2.73;91.51
57038;BME280;59942;49.304;8.256;2023-01-19T03:04:26;99411.84;;;-2.00;90.31
57038;BME280;59942;49.304;8.256;2023-01-19T03:12:40;99386.56;;;-2.22;91.01
57038;BME280;59942;49.304;8.256;2023-01-19T03:17:56;99215.50;;;-3.26;91.09
57038;BME280;59942;49.304;8.256;2023-01-19T03:20:26;99337.75;;;-2.64;91.29
57038;BME280;59942;49.304;8.256;2023-01-19T03:23:00;99358.78;;;-2.43;92.18
57038;BME280;59942;49.304;8.256;2023-01-19T03:25:34;99343.69;;;-2.65;91.91
57038;BME280;59942;49.304;8.256;2023-01-19T03:28:03;99295.59;;;-2.87;92.28
57038;BME280;59942;49.304;8.256;2023-01-19T03:30:34;99419.63;;;-2.25;92.14
57038;BME280;59942;49.304;8.256;2023-01-19T03:33:13;99199.56;;;-3.53;92.88
57038;BME280;59942;49.304;8.256;2023-01-19T03:35:48;99302.38;;;-2.89;93.07
57038;BME280;59942;49.304;8.256;2023-01-19T03:38:21;99336.88;;;-2.60;92.98
57038;BME280;59942;49.304;8.256;2023-01-19T03:40:55;99199.59;;;-3.56;93.19
57038;BME280;59942;49.304;8.256;2023-01-19T03:43:29;99219.75;;;-3.32;93.18
57038;BME280;59942;49.304;8.256;2023-01-19T03:46:02;99347.78;;;-2.49;93.40
57038;BME280;59942;49.304;8.256;2023-01-19T03:48:38;99180.97;;;-3.52;93.48
57038;BME280;59942;49.304;8.256;2023-01-19T03:51:08;99360.47;;;-2.47;92.58
57038;BME280;59942;49.304;8.256;2023-01-19T03:53:36;99427.13;;;-2.06;92.88
57038;BME280;59942;49.304;8.256;2023-01-19T03:56:05;99236.66;;;-3.40;91.65
57038;BME280;59942;49.304;8.256;2023-01-19T03:58:38;99296.44;;;-2.91;93.88
57038;BME280;59942;49.304;8.256;2023-01-19T04:01:05;99302.34;;;-2.83;93.99
57038;BME280;59942;49.304;8.256;2023-01-19T04:03:32;99395.94;;;-2.33;94.17
57038;BME280;59942;49.304;8.256;2023-01-19T04:06:00;99363.16;;;-2.75;93.10
57038;BME280;59942;49.304;8.256;2023-01-19T04:08:27;99446.59;;;-2.10;94.11
57038;BME280;59942;49.304;8.256;2023-01-19T04:10:56;99310.88;;;-3.02;94.30
57038;BME280;59942;49.304;8.256;2023-01-19T04:13:26;99300.78;;;-3.11;94.03
57038;BME280;59942;49.304;8.256;2023-01-19T04:16:03;99246.00;;;-3.46;94.46
57038;BME280;59942;49.304;8.256;2023-01-19T04:18:33;99348.00;;;-2.86;93.84
57038;BME280;59942;49.304;8.256;2023-01-19T04:21:01;99319.34;;;-3.11;93.58
57038;BME280;59942;49.304;8.256;2023-01-19T04:23:32;99419.72;;;-2.45;94.01
57038;BME280;59942;49.304;8.256;2023-01-19T04:26:05;99262.84;;;-3.32;93.14
57038;BME280;59942;49.304;8.256;2023-01-19T04:28:35;99348.09;;;-3.06;93.31
57038;BME280;59942;49.304;8.256;2023-01-19T04:31:04;99336.25;;;-3.04;94.08
57038;BME280;59942;49.304;8.256;2023-01-19T04:33:32;99392.81;;;-2.80;93.69
57038;BME280;59942;49.304;8.256;2023-01-19T04:35:59;99424.84;;;-2.60;93.74
57038;BME280;59942;49.304;8.256;2023-01-19T04:38:27;99289.88;;;-3.40;94.53
57038;BME280;59942;49.304;8.256;2023-01-19T04:40:56;99337.09;;;-3.11;94.48
57038;BME280;59942;49.304;8.256;2023-01-19T04:43:24;99278.94;;;-3.50;94.76
57038;BME280;59942;49.304;8.256;2023-01-19T04:45:51;99438.38;;;-2.63;92.82
57038;BME280;59942;49.304;8.256;2023-01-19T04:48:18;99393.66;;;-2.80;93.61
57038;BME280;59942;49.304;8.256;2023-01-19T04:50:46;99412.22;;;-2.73;93.82
57038;BME280;59942;49.304;8.256;2023-01-19T04:53:16;99331.22;;;-3.13;94.68
57038;BME280;59942;49.304;8.256;2023-01-19T04:55:44;99446.72;;;-2.30;94.85
57038;BME280;59942;49.304;8.256;2023-01-19T04:58:12;99318.53;;;-3.15;94.62
57038;BME280;59942;49.304;8.256;2023-01-19T05:00:40;99467.88;;;-2.28;95.83
57038;BME280;59942;49.304;8.256;2023-01-19T05:03:07;99374.22;;;-2.87;94.22
57038;BME280;59942;49.304;8.256;2023-01-19T05:05:37;99396.13;;;-2.64;94.83
57038;BME280;59942;49.304;8.256;2023-01-19T05:08:04;99322.72;;;-3.06;95.33
57038;BME280;59942;49.304;8.256;2023-01-19T05:10:34;99351.44;;;-2.93;95.13
57038;BME280;59942;49.304;8.256;2023-01-19T05:13:02;99467.88;;;-2.33;95.19
57038;BME280;59942;49.304;8.256;2023-01-19T05:15:30;99254.47;;;-3.55;94.89
57038;BME280;59942;49.304;8.256;2023-01-19T05:17:57;99356.50;;;-2.99;94.47
57038;BME280;59942;49.304;8.256;2023-01-19T05:20:24;99264.59;;;-3.58;94.13
57038;BME280;59942;49.304;8.256;2023-01-19T05:22:52;99437.47;;;-2.40;94.06
57038;BME280;59942;49.304;8.256;2023-01-19T05:25:19;99380.91;;;-2.70;94.42
57038;BME280;59942;49.304;8.256;2023-01-19T05:27:47;99300.84;;;-3.28;93.97
57038;BME280;59942;49.304;8.256;2023-01-19T05:30:17;99283.13;;;-3.38;93.89
57038;BME280;59942;49.304;8.256;2023-01-19T05:32:45;99264.53;;;-3.40;94.11
57038;BME280;59942;49.304;8.256;2023-01-19T05:35:12;99370.75;;;-2.70;93.56
57038;BME280;59942;49.304;8.256;2023-01-19T05:37:42;99300.88;;;-3.36;93.12
57038;BME280;59942;49.304;8.256;2023-01-19T05:40:31;99468.75;;;-2.32;92.33
57038;BME280;59942;49.304;8.256;2023-01-19T05:43:00;99402.84;;;-2.55;94.38
57038;BME280;59942;49.304;8.256;2023-01-19T05:45:28;99389.34;;;-2.64;93.46
57038;BME280;59942;49.304;8.256;2023-01-19T05:47:55;99275.50;;;-3.32;93.10
57038;BME280;59942;49.304;8.256;2023-01-19T05:50:23;99364.03;;;-2.77;93.75
57038;BME280;59942;49.304;8.256;2023-01-19T05:52:50;99314.25;;;-3.06;93.71
57038;BME280;59942;49.304;8.256;2023-01-19T05:55:20;99359.81;;;-2.83;93.83
57038;BME280;59942;49.304;8.256;2023-01-19T05:57:48;99344.56;;;-2.74;94.18
57038;BME280;59942;49.304;8.256;2023-01-19T06:00:15;99321.81;;;-2.92;92.38
57038;BME280;59942;49.304;8.256;2023-01-19T06:02:42;99351.41;;;-2.91;92.09
57038;BME280;59942;49.304;8.256;2023-01-19T06:05:09;99358.09;;;-2.73;93.06
57038;BME280;59942;49.304;8.256;2023-01-19T06:07:37;99484.59;;;-1.90;94.34
57038;BME280;59942;49.304;8.256;2023-01-19T06:10:38;99477.06;;;-2.05;93.83
57038;BME280;59942;49.304;8.256;2023-01-19T06:13:05;99452.59;;;-2.23;92.28
57038;BME280;59942;49.304;8.256;2023-01-19T06:15:32;99382.59;;;-2.71;93.87
57038;BME280;59942;49.304;8.256;2023-01-19T06:18:00;99460.13;;;-2.03;94.46
57038;BME280;59942;49.304;8.256;2023-01-19T06:20:27;99334.47;;;-2.86;94.31
57038;BME280;59942;49.304;8.256;2023-01-19T06:22:57;99444.13;;;-2.19;93.73
57038;BME280;59942;49.304;8.256;2023-01-19T06:25:25;99453.41;;;-2.15;93.95
57038;BME280;59942;49.304;8.256;2023-01-19T06:27:52;99385.88;;;-2.44;94.41
57038;BME280;59942;49.304;8.256;2023-01-19T06:30:19;99424.72;;;-2.28;94.33
57038;BME280;59942;49.304;8.256;2023-01-19T06:32:47;99421.34;;;-2.35;94.09
57038;BME280;59942;49.304;8.256;2023-01-19T06:35:14;99447.56;;;-2.34;93.61
57038;BME280;59942;49.304;8.256;2023-01-19T06:37:41;99423.03;;;-2.32;93.84
57038;BME280;59942;49.304;8.256;2023-01-19T06:40:09;99504.09;;;-1.95;93.27
57038;BME280;59942;49.304;8.256;2023-01-19T06:42:38;99421.41;;;-2.42;94.00
57038;BME280;59942;49.304;8.256;2023-01-19T06:45:06;99326.06;;;-3.01;93.95
57038;BME280;59942;49.304;8.256;2023-01-19T06:47:35;99418.75;;;-2.25;94.96
57038;BME280;59942;49.304;8.256;2023-01-19T06:50:03;99520.09;;;-1.78;94.07
57038;BME280;59942;49.304;8.256;2023-01-19T06:52:36;99385.06;;;-2.52;94.55
57038;BME280;59942;49.304;8.256;2023-01-19T06:55:09;99338.69;;;-2.84;94.25
57038;BME280;59942;49.304;8.256;2023-01-19T06:57:37;99324.31;;;-2.85;94.70
57038;BME280;59942;49.304;8.256;2023-01-19T07:00:05;99328.59;;;-2.93;94.78
57038;BME280;59942;49.304;8.256;2023-01-19T07:02:35;99459.28;;;-2.08;94.75
57038;BME280;59942;49.304;8.256;2023-01-19T07:05:03;99372.44;;;-2.69;94.23
57038;BME280;59942;49.304;8.256;2023-01-19T07:07:32;99525.19;;;-1.82;94.22
57038;BME280;59942;49.304;8.256;2023-01-19T07:09:59;99531.91;;;-1.75;94.31
57038;BME280;59942;49.304;8.256;2023-01-19T07:12:27;99369.97;;;-2.78;94.08
57038;BME280;59942;49.304;8.256;2023-01-19T07:14:57;99407.94;;;-2.62;94.09
57038;BME280;59942;49.304;8.256;2023-01-19T07:17:24;99494.81;;;-2.02;94.15
57038;BME280;59942;49.304;8.256;2023-01-19T07:19:54;99396.19;;;-2.81;94.10
57038;BME280;59942;49.304;8.256;2023-01-19T07:22:21;99408.75;;;-2.53;94.17
57038;BME280;59942;49.304;8.256;2023-01-19T07:24:48;99359.91;;;-3.00;93.69
57038;BME280;59942;49.304;8.256;2023-01-19T07:27:16;99517.69;;;-2.07;93.47
57038;BME280;59942;49.304;8.256;2023-01-19T07:29:43;99411.34;;;-2.64;94.83
57038;BME280;59942;49.304;8.256;2023-01-19T07:32:11;99362.41;;;-2.95;95.10
57038;BME280;59942;49.304;8.256;2023-01-19T07:34:38;99399.59;;;-2.87;94.06
57038;BME280;59942;49.304;8.256;2023-01-19T07:37:06;99348.91;;;-3.02;94.77
57038;BME280;59942;49.304;8.256;2023-01-19T07:39:33;99359.00;;;-2.87;94.71
57038;BME280;59942;49.304;8.256;2023-01-19T07:42:02;99454.31;;;-2.30;94.23
57038;BME280;59942;49.304;8.256;2023-01-19T07:44:30;99435.75;;;-2.38;93.62
57038;BME280;59942;49.304;8.256;2023-01-19T07:46:57;99461.13;;;-2.34;94.05
57038;BME280;59942;49.304;8.256;2023-01-19T07:52:31;99414.59;;;-2.40;94.65
57038;BME280;59942;49.304;8.256;2023-01-19T07:54:58;99439.84;;;-2.14;94.10
57038;BME280;59942;49.304;8.256;2023-01-19T07:57:27;99574.09;;;-1.38;94.25
57038;BME280;59942;49.304;8.256;2023-01-19T07:59:55;99506.72;;;-2.09;92.96
57038;BME280;59942;49.304;8.256;2023-01-19T08:02:22;99515.06;;;-1.90;93.25
57038;BME280;59942;49.304;8.256;2023-01-19T08:04:49;99575.84;;;-1.50;93.80
57038;BME280;59942;49.304;8.256;2023-01-19T08:07:16;99596.06;;;-1.34;94.26
57038;BME280;59942;49.304;8.256;2023-01-19T08:09:43;99543.69;;;-1.57;94.94
57038;BME280;59942;49.304;8.256;2023-01-19T08:12:10;99478.69;;;-1.90;94.41
57038;BME280;59942;49.304;8.256;2023-01-19T08:14:47;99482.09;;;-1.95;94.70
57038;BME280;59942;49.304;8.256;2023-01-19T08:17:14;99450.00;;;-2.13;94.81
57038;BME280;59942;49.304;8.256;2023-01-19T08:19:42;99529.25;;;-1.53;95.08
57038;BME280;59942;49.304;8.256;2023-01-19T08:22:09;99577.38;;;-1.24;95.03
57038;BME280;59942;49.304;8.256;2023-01-19T08:24:36;99583.28;;;-1.22;95.30
57038;BME280;59942;49.304;8.256;2023-01-19T08:27:03;99599.34;;;-1.14;95.09
57038;BME280;59942;49.304;8.256;2023-01-19T08:29:31;99590.88;;;-1.17;95.50
57038;BME280;59942;49.304;8.256;2023-01-19T08:31:59;99531.75;;;-1.46;94.63
57038;BME280;59942;49.304;8.256;2023-01-19T08:34:28;99606.91;;;-1.06;94.96
57038;BME280;59942;49.304;8.256;2023-01-19T08:36:57;99591.66;;;-1.09;94.52
57038;BME280;59942;49.304;8.256;2023-01-19T08:39:24;99584.09;;;-1.17;94.29
57038;BME280;59942;49.304;8.256;2023-01-19T08:41:51;99555.38;;;-1.30;93.84
57038;BME280;59942;49.304;8.256;2023-01-19T08:44:18;99589.09;;;-1.08;94.12
57038;BME280;59942;49.304;8.256;2023-01-19T08:46:45;99555.34;;;-1.28;94.60
57038;BME280;59942;49.304;8.256;2023-01-19T08:49:12;99543.53;;;-1.35;94.13
57038;BME280;59942;49.304;8.256;2023-01-19T08:51:39;99551.22;;;-1.40;94.03
57038;BME280;59942;49.304;8.256;2023-01-19T08:54:06;99566.28;;;-1.15;93.99
57038;BME280;59942;49.304;8.256;2023-01-19T08:56:33;99562.97;;;-1.27;94.79
57038;BME280;59942;49.304;8.256;2023-01-19T08:59:00;99539.28;;;-1.33;95.01
57038;BME280;59942;49.304;8.256;2023-01-19T09:01:38;99589.91;;;-1.01;95.07
57038;BME280;59942;49.304;8.256;2023-01-19T09:04:07;99562.81;;;-1.05;94.37
57038;BME280;59942;49.304;8.256;2023-01-19T09:06:34;99583.09;;;-0.97;94.55
57038;BME280;59942;49.304;8.256;2023-01-19T09:09:01;99557.81;;;-1.19;94.25
57038;BME280;59942;49.304;8.256;2023-01-19T09:11:28;99599.19;;;-0.94;94.40
57038;BME280;59942;49.304;8.256;2023-01-19T09:13:56;99594.81;;;-0.78;93.88
57038;BME280;59942;49.304;8.256;2023-01-19T09:16:23;99565.28;;;-0.97;93.95
57038;BME280;59942;49.304;8.256;2023-01-19T09:18:52;99600.84;;;-0.88;93.83
57038;BME280;59942;49.304;8.256;2023-01-19T09:21:19;99598.19;;;-0.77;93.46
57038;BME280;59942;49.304;8.256;2023-01-19T09:23:46;99587.34;;;-0.98;93.58
57038;BME280;59942;49.304;8.256;2023-01-19T09:26:15;99603.31;;;-0.82;94.00
57038;BME280;59942;49.304;8.256;2023-01-19T09:28:42;99561.94;;;-1.02;93.28
57038;BME280;59942;49.304;8.256;2023-01-19T09:31:09;99534.91;;;-1.17;93.90
57038;BME280;59942;49.304;8.256;2023-01-19T09:33:36;99561.78;;;-0.87;93.13
57038;BME280;59942;49.304;8.256;2023-01-19T09:36:03;99546.66;;;-0.99;92.98
57038;BME280;59942;49.304;8.256;2023-01-19T09:38:30;99546.59;;;-0.93;92.80
57038;BME280;59942;49.304;8.256;2023-01-19T09:40:59;99566.88;;;-0.85;93.08
57038;BME280;59942;49.304;8.256;2023-01-19T09:43:51;99587.97;;;-0.73;93.03
57038;BME280;59942;49.304;8.256;2023-01-19T09:46:26;99614.06;;;-0.49;93.38
57038;BME280;59942;49.304;8.256;2023-01-19T09:48:57;99567.53;;;-0.63;92.33
57038;BME280;59942;49.304;8.256;2023-01-19T09:51:32;99579.13;;;-0.34;91.92
57038;BME280;59942;49.304;8.256;2023-01-19T09:54:15;99598.75;;;0.27;91.27
57038;BME280;59942;49.304;8.256;2023-01-19T09:56:43;99602.59;;;0.58;89.64
57038;BME280;59942;49.304;8.256;2023-01-19T09:59:21;99609.47;;;0.52;88.29
57038;BME280;59942;49.304;8.256;2023-01-19T10:02:18;99608.19;;;0.22;90.03
57038;BME280;59942;49.304;8.256;2023-01-19T10:05:06;99607.41;;;0.14;89.97
57038;BME280;59942;49.304;8.256;2023-01-19T10:07:57;99606.66;;;0.09;91.32
57038;BME280;59942;49.304;8.256;2023-01-19T10:10:36;99591.50;;;-0.04;90.52
57038;BME280;59942;49.304;8.256;2023-01-19T10:16:24;99608.31;;;0.10;90.88
57038;BME280;59942;49.304;8.256;2023-01-19T10:19:01;99584.38;;;0.23;91.27
57038;BME280;59942;49.304;8.256;2023-01-19T10:21:41;99568.28;;;0.18;90.65
57038;BME280;59942;49.304;8.256;2023-01-19T10:26:48;99603.59;;;0.46;90.57
57038;BME280;59942;49.304;8.256;2023-01-19T10:29:29;99586.25;;;0.73;90.17
57038;BME280;59942;49.304;8.256;2023-01-19T10:32:07;99584.66;;;0.65;89.66
57038;BME280;59942;49.304;8.256;2023-01-19T10:34:34;99594.97;;;0.55;90.15
57038;BME280;59942;49.304;8.256;2023-01-19T10:39:51;99576.34;;;0.51;89.96
57038;BME280;59942;49.304;8.256;2023-01-19T10:42:19;99595.66;;;0.67;89.97
57038;BME280;59942;49.304;8.256;2023-01-19T10:44:48;99572.78;;;0.61;89.83
57038;BME280;59942;49.304;8.256;2023-01-19T10:47:17;99554.44;;;0.92;88.02
57038;BME280;59942;49.304;8.256;2023-01-19T10:49:45;99575.66;;;1.46;85.95
57038;BME280;59942;49.304;8.256;2023-01-19T10:52:29;99565.09;;;1.17;85.78
57038;BME280;59942;49.304;8.256;2023-01-19T10:54:59;99588.38;;;1.50;86.27
57038;BME280;59942;49.304;8.256;2023-01-19T10:57:34;99581.44;;;1.55;83.90
57038;BME280;59942;49.304;8.256;2023-01-19T11:00:05;99603.44;;;1.64;84.40
57038;BME280;59942;49.304;8.256;2023-01-19T11:02:33;99550.69;;;1.13;84.94
57038;BME280;59942;49.304;8.256;2023-01-19T11:05:30;99575.16;;;1.27;85.80
57038;BME280;59942;49.304;8.256;2023-01-19T11:07:57;99604.66;;;1.45;88.15
57038;BME280;59942;49.304;8.256;2023-01-19T11:10:26;99557.78;;;0.97;87.08
57038;BME280;59942;49.304;8.256;2023-01-19T11:13:03;99598.00;;;1.33;88.91
57038;BME280;59942;49.304;8.256;2023-01-19T11:15:52;99594.69;;;1.29;88.20
57038;BME280;59942;49.304;8.256;2023-01-19T11:18:27;99574.59;;;1.09;88.13
57038;BME280;59942;49.304;8.256;2023-01-19T11:20:59;99582.09;;;1.20;88.13
57038;BME280;59942;49.304;8.256;2023-01-19T11:23:38;99608.34;;;1.27;86.70
57038;BME280;59942;49.304;8.256;2023-01-19T11:26:14;99578.94;;;1.02;86.79
57038;BME280;59942;49.304;8.256;2023-01-19T11:28:46;99604.03;;;1.30;86.88
57038;BME280;59942;49.304;8.256;2023-01-19T11:33:41;99604.28;;;1.15;87.77
57038;BME280;59942;49.304;8.256;2023-01-19T11:36:20;99602.63;;;1.12;87.54
57038;BME280;59942;49.304;8.256;2023-01-19T11:38:49;99587.72;;;0.86;86.90
57038;BME280;59942;49.304;8.256;2023-01-19T11:41:17;99606.28;;;0.97;86.77
57038;BME280;59942;49.304;8.256;2023-01-19T11:43:49;99554.66;;;0.80;87.35
57038;BME280;59942;49.304;8.256;2023-01-19T11:46:17;99533.56;;;0.68;87.17
57038;BME280;59942;49.304;8.256;2023-01-19T11:48:58;99616.91;;;1.23;87.98
57038;BME280;59942;49.304;8.256;2023-01-19T11:54:44;99547.78;;;0.83;88.31
57038;BME280;59942;49.304;8.256;2023-01-19T11:57:15;99597.38;;;1.21;86.79
57038;BME280;59942;49.304;8.256;2023-01-19T11:59:43;99589.75;;;1.20;85.46
57038;BME280;59942;49.304;8.256;2023-01-19T12:04:54;99521.78;;;1.13;85.31
57038;BME280;59942;49.304;8.256;2023-01-19T12:07:28;99559.53;;;1.44;84.59
57038;BME280;59942;49.304;8.256;2023-01-19T12:10:22;99521.06;;;1.04;85.63
57038;BME280;59942;49.304;8.256;2023-01-19T12:12:51;99575.72;;;1.43;85.77
57038;BME280;59942;49.304;8.256;2023-01-19T12:17:57;99557.72;;;1.94;82.80
57038;BME280;59942;49.304;8.256;2023-01-19T12:20:38;99571.06;;;2.85;82.17
57038;BME280;59942;49.304;8.256;2023-01-19T12:28:32;99562.00;;;3.72;80.32
57038;BME280;59942;49.304;8.256;2023-01-19T12:31:01;99527.66;;;3.78;75.67
57038;BME280;59942;49.304;8.256;2023-01-19T12:33:39;99530.28;;;4.34;74.44
57038;BME280;59942;49.304;8.256;2023-01-19T12:39:18;99530.19;;;4.09;74.93
57038;BME280;59942;49.304;8.256;2023-01-19T12:41:46;99551.44;;;4.13;74.42
57038;BME280;59942;49.304;8.256;2023-01-19T12:44:18;99537.41;;;4.53;75.66
57038;BME280;59942;49.304;8.256;2023-01-19T12:49:33;99507.63;;;4.21;73.34
57038;BME280;59942;49.304;8.256;2023-01-19T12:54:54;99516.41;;;4.94;73.43
57038;BME280;59942;49.304;8.256;2023-01-19T13:02:52;99549.41;;;4.52;70.84
57038;BME280;59942;49.304;8.256;2023-01-19T13:05:46;99555.16;;;4.03;71.51
57038;BME280;59942;49.304;8.256;2023-01-19T13:08:12;99551.78;;;4.02;72.99
57038;BME280;59942;49.304;8.256;2023-01-19T13:18:45;99542.25;;;3.76;72.91
57038;BME280;59942;49.304;8.256;2023-01-19T13:21:33;99543.94;;;4.07;72.21
57038;BME280;59942;49.304;8.256;2023-01-19T13:24:06;99547.34;;;4.07;72.49
57038;BME280;59942;49.304;8.256;2023-01-19T13:26:39;99512.25;;;3.48;71.89
57038;BME280;59942;49.304;8.256;2023-01-19T13:31:43;99530.84;;;4.44;68.47
57038;BME280;59942;49.304;8.256;2023-01-19T13:34:13;99537.66;;;4.72;68.99
57038;BME280;59942;49.304;8.256;2023-01-19T13:36:45;99461.66;;;3.85;67.91
57038;BME280;59942;49.304;8.256;2023-01-19T13:39:13;99548.28;;;4.33;69.82
57038;BME280;59942;49.304;8.256;2023-01-19T13:41:44;99523.81;;;4.51;72.84
57038;BME280;59942;49.304;8.256;2023-01-19T13:44:18;99448.03;;;3.82;70.21
57038;BME280;59942;49.304;8.256;2023-01-19T13:46:48;99546.69;;;4.29;70.05
57038;BME280;59942;49.304;8.256;2023-01-19T13:49:27;99556.63;;;3.81;71.16
57038;BME280;59942;49.304;8.256;2023-01-19T13:52:19;99508.13;;;4.04;69.56
57038;BME280;59942;49.304;8.256;2023-01-19T13:54:50;99529.50;;;3.74;71.63
57038;BME280;59942;49.304;8.256;2023-01-19T14:07:47;99510.47;;;3.19;71.58
57038;BME280;59942;49.304;8.256;2023-01-19T14:10:15;99492.31;;;2.95;72.80
57038;BME280;59942;49.304;8.256;2023-01-19T14:12:42;99506.22;;;3.18;73.16
57038;BME280;59942;49.304;8.256;2023-01-19T14:15:25;99522.16;;;3.29;72.53
57038;BME280;59942;49.304;8.256;2023-01-19T14:20:36;99555.09;;;3.43;72.73
57038;BME280;59942;49.304;8.256;2023-01-19T14:23:04;99563.75;;;3.39;70.76
57038;BME280;59942;49.304;8.256;2023-01-19T14:25:34;99570.13;;;3.55;72.45
57038;BME280;59942;49.304;8.256;2023-01-19T14:30:59;99543.94;;;3.12;72.88
57038;BME280;59942;49.304;8.256;2023-01-19T14:33:46;99570.66;;;3.02;72.83
57038;BME280;59942;49.304;8.256;2023-01-19T14:38:44;99556.97;;;2.67;74.91
57038;BME280;59942;49.304;8.256;2023-01-19T14:41:38;99535.13;;;2.88;75.00
57038;BME280;59942;49.304;8.256;2023-01-19T14:44:08;99579.88;;;3.09;73.85
57038;BME280;59942;49.304;8.256;2023-01-19T14:46:37;99514.38;;;2.65;74.28
57038;BME280;59942;49.304;8.256;2023-01-19T14:49:05;99546.06;;;2.59;74.30